CheckWX is a tool to help pilots better visualize weather data.  It is not intended as a substitute for an official pre-flight weather briefing.

08:55:37 UTC

KARR METAR
Aurora Municipal Airport
Chicago/Aurora, Illinois, USA
Current

1 hour ago

KARR 060752Z AUTO 24006KT 8SM CLR 02/01 A2997 RMK AO2 SLP153 T00220006
Observed
Dec-6 @ 07:52 UTC
Wind
  • 240° at 6 KTS
Visibility
8 SM
Flight Rules
VFR
Cloud Levels
  • Clear skies
Temperature
C / 36°F
Dewpoint
C / 34°F
Humidity
93%
Altimeter
29.97" Hg
Pressure
1014.92 hPa
Previous

2 hours ago

KARR 060652Z AUTO 27006KT 7SM CLR 01/00 A2994 RMK AO2 SLP143 T00110000
Observed
Dec-6 @ 06:52 UTC
Wind
  • 270° at 6 KTS
Visibility
7 SM
Flight Rules
VFR
Cloud Levels
  • Clear skies
Temperature
C / 34°F
Dewpoint
C / 32°F
Humidity
93%
Altimeter
29.94" Hg
Pressure
1013.92 hPa
Previous

3 hours ago

KARR 060552Z AUTO 22004KT 8SM CLR 03/01 A2993 RMK AO2 SLP140 T00280011 10050 20006 400781056 50002
Observed
Dec-6 @ 05:52 UTC
Wind
  • 220° at 4 KTS
Visibility
8 SM
Flight Rules
VFR
Cloud Levels
  • Clear skies
Temperature
C / 37°F
Dewpoint
C / 34°F
Humidity
87%
Altimeter
29.93" Hg
Pressure
1013.52 hPa